Time;durP1;ratioP1;P1;durP2;ratioP2;P2;SDS_P1;SDS_P2;PMS_P1;PMS_P2;Temp;Humidity;BMP_temperature;BMP_pressure;BME280_temperature;BME280_humidity;BME280_pressure;Samples;Min_cycle;Max_cycle;Signal;HPM_P1;HPM_P2
2022/09/22 00:01:05;;;;;;;6.20;1.60;;;;;;;15.30;54.11;100685.47;5001801;28;20053;-87
2022/09/22 00:03:33;;;;;;;1.85;1.55;;;;;;;15.16;54.20;100665.19;5010218;28;20027;-88
2022/09/22 00:06:09;;;;;;;2.15;1.55;;;;;;;15.15;53.80;100649.06;4997673;28;20116;-88
2022/09/22 00:08:39;;;;;;;2.28;1.52;;;;;;;14.91;53.88;100619.88;4997794;28;20027;-88
2022/09/22 00:11:15;;;;;;;2.03;1.67;;;;;;;14.27;54.19;100516.25;4997930;28;20111;-89
2022/09/22 00:13:47;;;;;;;2.53;1.48;;;;;;;14.57;53.98;100583.63;4997099;28;20030;-90
2022/09/22 00:16:14;;;;;;;8.07;2.00;;;;;;;14.21;54.17;100533.09;4996346;28;20034;-87
2022/09/22 00:18:41;;;;;;;3.42;2.00;;;;;;;14.54;54.53;100589.31;4995802;28;20414;-89
2022/09/22 00:21:11;;;;;;;8.38;2.13;;;;;;;14.31;54.87;100544.72;4996074;28;20519;-88
2022/09/22 00:23:37;;;;;;;4.60;1.65;;;;;;;14.10;54.74;100518.75;4995758;28;20026;-87
2022/09/22 00:26:05;;;;;;;7.25;2.38;;;;;;;14.76;54.76;100615.13;4995027;28;20092;-88
2022/09/22 00:28:32;;;;;;;16.58;2.90;;;;;;;14.93;55.08;100671.16;5002749;28;20023;-89
2022/09/22 00:30:57;;;;;;;6.15;2.50;;;;;;;14.62;55.08;100619.19;5002422;28;20058;-89
2022/09/22 00:33:23;;;;;;;4.63;2.22;;;;;;;14.35;55.12;100562.38;5003779;28;20026;-89
2022/09/22 00:35:59;;;;;;;4.10;1.88;;;;;;;14.13;55.11;100537.38;5008005;28;20026;-89
2022/09/22 00:38:26;;;;;;;6.22;2.53;;;;;;;13.98;55.41;100514.53;5017172;28;20058;-90
2022/09/22 00:40:51;;;;;;;2.58;2.08;;;;;;;14.32;55.70;100573.44;5016788;28;20037;-87
2022/09/22 00:43:20;;;;;;;6.25;2.35;;;;;;;14.01;55.57;100546.69;4971945;28;20126;-89
2022/09/22 00:45:52;;;;;;;2.83;1.98;;;;;;;13.71;56.16;100506.41;4956759;29;20089;-89
2022/09/22 00:48:21;;;;;;;3.88;2.20;;;;;;;13.65;56.58;100520.50;4956979;29;20039;-89
2022/09/22 00:50:51;;;;;;;5.85;2.90;;;;;;;13.91;56.54;100566.66;4955298;29;20050;-89
2022/09/22 00:53:22;;;;;;;3.60;2.17;;;;;;;14.15;56.44;100610.28;4955350;29;20035;-88
2022/09/22 00:56:00;;;;;;;5.35;2.80;;;;;;;14.45;57.10;100660.59;4955029;29;20157;-88
2022/09/22 00:58:32;;;;;;;4.45;2.63;;;;;;;13.80;57.26;100581.22;4939142;29;20422;-89
2022/09/22 01:00:59;;;;;;;6.30;2.35;;;;;;;13.55;57.40;100547.56;4955550;29;20430;-89
2022/09/22 01:03:28;;;;;;;11.57;2.35;;;;;;;14.33;57.77;100667.19;4939707;29;20047;-89
2022/09/22 01:05:56;;;;;;;7.78;3.05;;;;;;;13.60;57.78;100549.84;4955768;29;20130;-89
2022/09/22 01:08:24;;;;;;;6.20;2.75;;;;;;;13.39;57.97;100514.88;4960839;29;20101;-88
2022/09/22 01:10:53;;;;;;;7.88;2.85;;;;;;;13.96;58.31;100616.59;4961865;29;20037;-91
2022/09/22 01:13:24;;;;;;;6.15;3.13;;;;;;;13.65;58.58;100585.38;4964443;29;20514;-90
2022/09/22 01:16:14;;;;;;;3.72;2.70;;;;;;;14.07;58.64;100659.69;4962043;29;20399;-90
2022/09/22 01:19:12;;;;;;;6.65;2.83;;;;;;;14.00;58.80;100642.34;4954193;28;20107;-89
2022/09/22 01:22:02;;;;;;;9.00;3.67;;;;;;;14.05;58.86;100650.88;4987250;28;20124;-90
2022/09/22 01:24:52;;;;;;;6.57;3.20;;;;;;;14.05;58.85;100648.16;4994930;28;20030;-88
2022/09/22 01:27:33;;;;;;;5.28;2.92;;;;;;;13.55;58.94;100571.88;4995793;28;20027;-89
2022/09/22 01:30:25;;;;;;;14.70;2.65;;;;;;;14.04;59.04;100651.88;4997734;28;20097;-88
2022/09/22 01:32:57;;;;;;;5.82;2.97;;;;;;;14.07;58.92;100667.78;5010605;28;20018;-88
2022/09/22 01:35:26;;;;;;;5.43;2.75;;;;;;;14.10;58.94;100663.94;4998213;28;20092;-88
2022/09/22 01:38:33;;;;;;;6.32;3.00;;;;;;;14.14;58.73;100646.44;4995464;28;20114;-89
2022/09/22 01:41:05;;;;;;;8.80;2.30;;;;;;;13.64;58.80;100584.50;4996448;28;20031;-88
2022/09/22 01:43:39;;;;;;;9.40;2.47;;;;;;;13.35;58.97;100542.34;5002846;28;20026;-88
2022/09/22 01:46:18;;;;;;;7.60;2.90;;;;;;;13.25;58.65;100522.59;5003513;28;20038;-87
2022/09/22 01:48:47;;;;;;;7.40;2.60;;;;;;;14.01;58.91;100662.13;5001365;28;20026;-87
2022/09/22 01:51:29;;;;;;;5.55;3.38;;;;;;;13.21;58.87;100532.00;4997425;28;20042;-88
2022/09/22 01:54:16;;;;;;;7.13;2.47;;;;;;;14.04;59.06;100676.19;4999259;28;20047;-87
2022/09/22 01:56:47;;;;;;;11.15;2.85;;;;;;;13.22;58.89;100536.38;5000757;28;20030;-88
2022/09/22 01:59:16;;;;;;;4.53;2.80;;;;;;;13.21;58.74;100529.28;5004141;28;20065;-88
2022/09/22 02:01:51;;;;;;;6.20;2.63;;;;;;;13.29;59.12;100529.41;5004986;28;20057;-89
2022/09/22 02:04:28;;;;;;;39.97;5.50;;;;;;;13.22;58.71;100530.97;5015508;28;20050;-85
2022/09/22 02:07:02;;;;;;;7.13;2.97;;;;;;;13.50;58.65;100559.81;5016565;28;20053;-86
2022/09/22 02:09:31;;;;;;;4.60;2.30;;;;;;;14.18;58.92;100674.91;5015016;28;20055;-88
2022/09/22 02:11:58;;;;;;;3.10;2.20;;;;;;;13.65;59.00;100590.78;4999324;28;20046;-88
2022/09/22 02:14:25;;;;;;;4.32;2.72;;;;;;;13.43;58.62;100527.09;5002187;28;20025;-88
2022/09/22 02:16:52;;;;;;;8.70;2.72;;;;;;;13.47;58.29;100538.47;5002380;28;20089;-89
2022/09/22 02:19:31;;;;;;;7.32;2.65;;;;;;;13.64;58.50;100545.81;5003211;28;20046;-88
2022/09/22 02:21:58;;;;;;;6.93;2.65;;;;;;;13.35;58.29;100501.81;5002640;28;20117;-88
2022/09/22 02:24:32;;;;;;;7.40;2.28;;;;;;;14.17;58.82;100655.09;5003321;28;20030;-88
2022/09/22 02:27:24;;;;;;;5.40;3.35;;;;;;;13.83;58.65;100578.22;4998381;28;20037;-87
2022/09/22 02:29:57;;;;;;;7.57;2.57;;;;;;;13.93;59.13;100611.50;5003795;28;20030;-88
2022/09/22 02:32:23;;;;;;;4.95;3.15;;;;;;;14.31;58.53;100669.16;5004920;28;20033;-87
2022/09/22 02:34:50;;;;;;;5.68;2.28;;;;;;;13.69;58.31;100546.25;5005251;28;20042;-87
2022/09/22 02:37:22;;;;;;;6.18;3.25;;;;;;;13.58;58.32;100536.44;5007366;28;20133;-90
2022/09/22 02:40:19;;;;;;;5.88;2.45;;;;;;;14.05;58.36;100606.75;5003700;28;20038;-89
2022/09/22 02:43:14;;;;;;;7.05;2.75;;;;;;;13.91;58.67;100591.00;5000033;28;20066;-86
2022/09/22 02:46:25;;;;;;;7.95;2.50;;;;;;;14.29;58.73;100660.31;5000461;28;20096;-88
2022/09/22 02:49:05;;;;;;;4.47;2.53;;;;;;;13.76;58.60;100577.06;4995731;28;20514;-87
2022/09/22 02:51:33;;;;;;;13.80;2.67;;;;;;;14.29;58.46;100639.53;4999122;28;20109;-88
2022/09/22 02:54:00;;;;;;;6.35;2.55;;;;;;;13.78;58.49;100558.03;4999133;28;20052;-87
2022/09/22 02:56:27;;;;;;;7.45;2.60;;;;;;;13.94;58.26;100569.91;5000307;28;20022;-89
2022/09/22 02:58:53;;;;;;;7.25;2.80;;;;;;;13.83;57.96;100556.59;5007491;28;20117;-88
2022/09/22 03:01:19;;;;;;;4.32;2.55;;;;;;;13.70;57.99;100530.91;5011515;28;20025;-88
2022/09/22 03:03:44;;;;;;;4.82;2.42;;;;;;;13.78;57.84;100531.00;5010991;28;20037;-87
2022/09/22 03:06:10;;;;;;;7.95;2.72;;;;;;;14.08;57.68;100588.38;5002063;28;20417;-87
2022/09/22 03:08:36;;;;;;;6.85;3.40;;;;;;;14.50;57.99;100653.72;5005780;28;20034;-90
2022/09/22 03:11:02;;;;;;;3.28;2.38;;;;;;;13.91;58.03;100543.16;5006987;28;20027;-90
2022/09/22 03:13:28;;;;;;;3.00;2.50;;;;;;;13.85;57.86;100543.75;5006359;28;20089;-88
2022/09/22 03:15:56;;;;;;;6.97;2.78;;;;;;;13.77;57.63;100516.63;5008150;28;20037;-88
2022/09/22 03:18:22;;;;;;;3.75;2.65;;;;;;;14.06;58.01;100563.34;5002665;28;20473;-89
2022/09/22 03:20:48;;;;;;;5.05;2.45;;;;;;;14.51;58.08;100643.75;5007165;28;20030;-89
2022/09/22 03:23:14;;;;;;;4.05;2.30;;;;;;;14.38;57.88;100622.44;5009128;28;20508;-91
2022/09/22 03:25:40;;;;;;;3.72;2.13;;;;;;;13.78;57.84;100526.44;5008447;28;20023;-88
2022/09/22 03:28:05;;;;;;;3.30;2.63;;;;;;;14.46;57.78;100605.47;5007600;28;20105;-87
2022/09/22 03:30:32;;;;;;;3.80;2.50;;;;;;;14.13;57.75;100561.72;5014055;28;20061;-86
2022/09/22 03:32:57;;;;;;;14.52;3.58;;;;;;;13.83;57.84;100517.88;5018855;28;20034;-88
2022/09/22 03:35:23;;;;;;;11.80;3.08;;;;;;;14.54;57.75;100638.91;5007242;28;20038;-81
2022/09/22 03:37:48;;;;;;;11.30;4.30;;;;;;;14.64;57.57;100655.09;5002523;28;20050;-82
2022/09/22 03:40:14;;;;;;;9.63;3.25;;;;;;;14.67;57.48;100654.81;4991657;28;20049;-81
2022/09/22 03:42:39;;;;;;;4.97;2.53;;;;;;;14.33;57.94;100622.06;4991520;28;20250;-81
2022/09/22 03:45:05;;;;;;;9.90;2.72;;;;;;;14.45;57.98;100639.81;4992318;28;20039;-81
2022/09/22 03:47:31;;;;;;;10.38;2.67;;;;;;;14.48;57.97;100650.31;4992092;28;20038;-81
2022/09/22 03:49:57;;;;;;;6.68;2.55;;;;;;;14.58;57.84;100651.16;4992294;28;20041;-81
2022/09/22 03:52:23;;;;;;;13.80;3.45;;;;;;;14.59;57.89;100646.56;4991577;28;20069;-81
2022/09/22 03:54:48;;;;;;;12.07;2.75;;;;;;;14.44;57.84;100629.13;4975250;28;20078;-81
2022/09/22 03:57:14;;;;;;;4.82;2.97;;;;;;;14.38;58.48;100637.81;4991652;28;20074;-81
2022/09/22 03:59:39;;;;;;;5.82;3.42;;;;;;;14.41;58.43;100653.75;4976925;28;20034;-83
2022/09/22 04:02:05;;;;;;;3.97;2.30;;;;;;;14.45;58.22;100671.41;4977349;28;20103;-81
2022/09/22 04:04:31;;;;;;;7.00;3.20;;;;;;;14.39;58.42;100661.19;4993844;28;20034;-80
2022/09/22 04:06:57;;;;;;;8.50;3.63;;;;;;;14.43;58.32;100676.13;4994272;28;20050;-81
2022/09/22 04:09:22;;;;;;;3.83;2.72;;;;;;;14.25;58.30;100651.66;4994142;28;20065;-81
2022/09/22 04:11:47;;;;;;;7.50;3.20;;;;;;;14.27;58.47;100676.72;4993278;28;20113;-80
2022/09/22 04:14:13;;;;;;;4.45;3.20;;;;;;;14.12;58.58;100649.28;4993818;28;20030;-78
2022/09/22 04:16:41;;;;;;;13.15;3.10;;;;;;;14.18;58.93;100689.28;4992904;28;20034;-78
2022/09/22 04:19:09;;;;;;;15.65;3.28;;;;;;;14.26;58.82;100696.66;4994008;28;20034;-80
2022/09/22 04:21:35;;;;;;;6.07;2.90;;;;;;;14.13;59.00;100667.22;4993130;28;20027;-78
2022/09/22 04:24:00;;;;;;;6.72;2.70;;;;;;;14.29;58.86;100687.38;4995945;28;20030;-79
2022/09/22 04:26:26;;;;;;;11.23;3.25;;;;;;;14.40;58.80;100689.97;5013998;28;20530;-78
2022/09/22 04:28:51;;;;;;;4.47;3.00;;;;;;;14.43;58.49;100690.50;5014667;28;20038;-80
2022/09/22 04:31:18;;;;;;;7.13;3.10;;;;;;;14.42;58.70;100698.78;5006297;28;20034;-81
2022/09/22 04:33:44;;;;;;;9.30;2.60;;;;;;;14.47;58.61;100701.88;4993796;28;20034;-79
2022/09/22 04:36:09;;;;;;;5.43;2.95;;;;;;;14.34;58.44;100690.56;4992091;28;20033;-79
2022/09/22 04:38:35;;;;;;;21.20;4.43;;;;;;;14.41;58.81;100702.47;4991802;28;20076;-78
2022/09/22 04:41:01;;;;;;;10.45;3.90;;;;;;;14.41;58.51;100707.88;4990883;28;20030;-77
2022/09/22 04:43:26;;;;;;;8.23;4.45;;;;;;;14.24;58.96;100704.06;4991852;28;20030;-78
2022/09/22 04:45:52;;;;;;;4.43;3.28;;;;;;;14.15;58.95;100686.88;4991469;28;20034;-78
2022/09/22 04:48:17;;;;;;;5.93;3.55;;;;;;;14.18;58.88;100683.88;4991317;28;20054;-81
2022/09/22 04:50:43;;;;;;;5.35;3.03;;;;;;;14.22;59.02;100702.50;5004171;28;20033;-83
2022/09/22 04:53:09;;;;;;;10.63;3.83;;;;;;;14.30;58.86;100711.59;5008957;28;20112;-82
2022/09/22 04:55:34;;;;;;;3.67;2.92;;;;;;;14.48;58.75;100719.84;5013018;28;20512;-84
2022/09/22 04:58:00;;;;;;;6.60;3.58;;;;;;;14.23;58.73;100669.03;5021777;28;20109;-83
2022/09/22 05:00:27;;;;;;;110.07;12.80;;;;;;;14.46;58.90;100719.13;5032240;28;20029;-84
2022/09/22 05:02:57;;;;;;;6.57;3.70;;;;;;;14.49;58.81;100721.53;5032633;28;20030;-85
2022/09/22 05:05:26;;;;;;;15.23;3.53;;;;;;;14.51;58.70;100716.84;5026610;28;20042;-88
2022/09/22 05:07:53;;;;;;;8.15;3.53;;;;;;;14.50;58.78;100737.63;5018692;28;20026;-83
2022/09/22 05:10:23;;;;;;;22.10;5.55;;;;;;;14.18;58.71;100686.56;5019849;28;20030;-89
2022/09/22 05:12:50;;;;;;;7.40;3.75;;;;;;;14.18;59.25;100701.94;5017831;28;20104;-88
2022/09/22 05:15:16;;;;;;;12.52;3.90;;;;;;;14.20;59.24;100716.19;5019415;28;20037;-91
2022/09/22 05:17:51;;;;;;;11.52;4.60;;;;;;;14.01;59.40;100676.50;4962297;28;20050;-87
2022/09/22 05:20:18;;;;;;;7.45;4.43;;;;;;;14.18;59.36;100694.69;4974187;28;20462;-84
2022/09/22 05:22:46;;;;;;;5.32;3.50;;;;;;;14.29;59.83;100738.78;4974059;28;20053;-89
2022/09/22 05:25:14;;;;;;;12.32;4.05;;;;;;;14.29;60.13;100726.13;4977882;28;20031;-88
2022/09/22 05:28:11;;;;;;;10.05;4.30;;;;;;;14.43;59.99;100739.19;4962022;28;20047;-90
2022/09/22 05:30:39;;;;;;;7.43;4.03;;;;;;;14.54;59.87;100735.47;4928418;29;20035;-87
2022/09/22 05:33:05;;;;;;;10.05;4.32;;;;;;;14.45;60.13;100726.41;4928292;28;20051;-88
2022/09/22 05:35:31;;;;;;;8.48;4.30;;;;;;;14.54;59.98;100719.25;4938581;29;20509;-87
2022/09/22 05:37:57;;;;;;;8.38;3.33;;;;;;;14.53;59.62;100695.88;4925205;29;20135;-89
2022/09/22 05:40:24;;;;;;;9.07;3.83;;;;;;;14.89;59.88;100741.03;4929128;29;20131;-90
2022/09/22 05:42:51;;;;;;;8.52;3.80;;;;;;;14.89;59.58;100727.47;4889508;29;20040;-90
2022/09/22 05:45:18;;;;;;;6.40;3.28;;;;;;;15.07;58.85;100727.56;4933803;29;20065;-87
2022/09/22 05:47:44;;;;;;;12.38;4.10;;;;;;;15.29;58.79;100747.97;4935873;29;20063;-86
2022/09/22 05:50:11;;;;;;;4.30;3.30;;;;;;;15.16;58.40;100727.50;4954896;29;20039;-89
2022/09/22 05:52:38;;;;;;;19.33;3.38;;;;;;;14.84;57.94;100656.69;4955512;29;20027;-89
2022/09/22 05:55:04;;;;;;;5.88;3.40;;;;;;;15.36;58.17;100749.03;4949997;29;20051;-86
2022/09/22 05:57:30;;;;;;;7.32;3.35;;;;;;;15.37;58.09;100750.75;4949192;29;20163;-86
2022/09/22 05:59:57;;;;;;;8.15;3.42;;;;;;;15.23;58.02;100716.88;4956076;29;20070;-90
2022/09/22 06:02:23;;;;;;;27.95;5.43;;;;;;;15.45;57.77;100748.13;4964179;28;20106;-84
2022/09/22 06:04:49;;;;;;;19.92;8.02;;;;;;;15.39;57.40;100737.91;4954622;28;20069;-87
2022/09/22 06:07:15;;;;;;;8.70;3.45;;;;;;;15.53;57.30;100759.97;4958883;29;20094;-87
2022/09/22 06:09:40;;;;;;;12.25;4.95;;;;;;;15.29;57.64;100723.59;4938036;29;20043;-81
2022/09/22 06:12:07;;;;;;;4.40;3.15;;;;;;;15.37;57.91;100743.47;4959867;29;20034;-88
2022/09/22 06:14:34;;;;;;;9.85;6.07;;;;;;;15.19;57.89;100720.94;4954795;29;20047;-86
2022/09/22 06:16:59;;;;;;;22.38;4.18;;;;;;;15.22;58.13;100732.31;4948773;29;20043;-86
2022/09/22 06:19:27;;;;;;;297.27;22.80;;;;;;;15.22;58.33;100745.88;4961516;29;20046;-89
2022/09/22 06:21:53;;;;;;;46.95;6.65;;;;;;;14.92;58.67;100685.75;4969591;29;20027;-84
2022/09/22 06:24:18;;;;;;;17.38;3.97;;;;;;;15.04;58.41;100693.50;4966969;29;20051;-84
2022/09/22 06:26:44;;;;;;;13.57;4.85;;;;;;;15.05;58.47;100684.34;4987899;28;20112;-82
2022/09/22 06:29:09;;;;;;;5.50;3.55;;;;;;;15.18;58.36;100698.41;5034141;28;20045;-84
2022/09/22 06:31:35;;;;;;;7.43;3.70;;;;;;;15.39;58.36;100738.75;5035943;28;20030;-85
2022/09/22 06:34:01;;;;;;;5.85;3.80;;;;;;;15.14;58.41;100683.44;5025608;28;20056;-84
2022/09/22 06:36:30;;;;;;;7.82;3.45;;;;;;;14.73;58.12;100610.88;5016104;28;20160;-85
2022/09/22 06:38:59;;;;;;;8.48;3.80;;;;;;;15.52;58.13;100727.56;5017060;28;20046;-84
2022/09/22 06:41:25;;;;;;;11.75;4.20;;;;;;;15.14;58.28;100664.47;5017599;28;20109;-84
2022/09/22 06:43:54;;;;;;;37.42;8.27;;;;;;;15.09;57.91;100661.38;5015444;28;20030;-84
2022/09/22 06:46:27;;;;;;;58.45;8.07;;;;;;;14.77;58.51;100611.44;5015544;28;20116;-85
2022/09/22 06:48:57;;;;;;;12.82;4.00;;;;;;;15.51;58.40;100706.88;5016285;28;20044;-90
2022/09/22 06:51:27;;;;;;;8.85;4.00;;;;;;;15.53;58.10;100692.19;5018914;28;20049;-86
2022/09/22 06:53:53;;;;;;;9.88;4.05;;;;;;;15.46;57.32;100672.09;5022821;28;20061;-89
2022/09/22 06:56:20;;;;;;;8.85;4.18;;;;;;;15.37;57.44;100642.34;5016680;28;20117;-87
2022/09/22 06:58:48;;;;;;;9.75;5.18;;;;;;;15.93;57.19;100732.34;5017172;28;20068;-86
2022/09/22 07:01:14;;;;;;;7.82;3.70;;;;;;;15.98;57.43;100730.03;5013944;28;20041;-86
2022/09/22 07:03:40;;;;;;;6.68;4.70;;;;;;;15.51;57.20;100658.09;5013870;28;20026;-85
2022/09/22 07:06:07;;;;;;;9.63;3.55;;;;;;;15.87;57.31;100695.00;5014451;28;20030;-78
2022/09/22 07:08:34;;;;;;;6.38;4.22;;;;;;;16.21;56.93;100755.66;5015065;28;20121;-86
2022/09/22 07:11:02;;;;;;;9.75;4.00;;;;;;;16.34;56.98;100745.25;5016281;28;20030;-83
2022/09/22 07:13:29;;;;;;;9.50;3.72;;;;;;;16.53;56.86;100755.03;5012687;28;20036;-82
2022/09/22 07:16:03;;;;;;;8.35;4.05;;;;;;;16.52;56.32;100744.34;5012485;28;20042;-82
2022/09/22 07:18:29;;;;;;;8.25;3.95;;;;;;;16.69;56.47;100757.03;5013471;28;20113;-82
2022/09/22 07:21:07;;;;;;;7.38;3.95;;;;;;;16.68;56.06;100747.19;5018146;28;20144;-83
2022/09/22 07:23:34;;;;;;;7.40;4.03;;;;;;;16.89;55.50;100753.06;5013497;28;20049;-82
2022/09/22 07:26:04;;;;;;;13.57;4.95;;;;;;;16.90;55.83;100768.38;5011977;28;20109;-86
2022/09/22 07:28:32;;;;;;;7.38;4.15;;;;;;;17.00;55.44;100768.25;5013247;28;20025;-79
2022/09/22 07:31:06;;;;;;;8.20;3.97;;;;;;;17.09;55.29;100761.84;5016112;28;20028;-81
2022/09/22 07:33:33;;;;;;;6.78;3.75;;;;;;;17.05;55.11;100750.44;5012794;28;20022;-80
2022/09/22 07:36:12;;;;;;;9.15;4.93;;;;;;;17.25;55.06;100781.75;5011438;28;20022;-79
2022/09/22 07:38:40;;;;;;;10.32;4.65;;;;;;;17.29;54.98;100755.97;5011482;28;20046;-78
2022/09/22 07:41:11;;;;;;;13.98;4.93;;;;;;;17.38;55.05;100776.72;5013398;28;20030;-80
2022/09/22 07:43:37;;;;;;;16.33;6.47;;;;;;;17.49;54.65;100767.38;5010713;28;20037;-82
2022/09/22 07:46:03;;;;;;;9.77;5.68;;;;;;;17.56;54.47;100754.00;5013415;28;20034;-83
2022/09/22 07:48:36;;;;;;;11.77;4.88;;;;;;;17.68;54.19;100771.72;5016179;28;20100;-85
2022/09/22 07:51:02;;;;;;;13.57;9.57;;;;;;;17.65;54.24;100763.88;5025838;28;20037;-84
2022/09/22 07:53:27;;;;;;;11.23;4.35;;;;;;;17.65;54.28;100772.06;5028564;28;20041;-80
2022/09/22 07:55:53;;;;;;;12.02;6.28;;;;;;;17.48;54.69;100745.81;5026814;28;20160;-83
2022/09/22 07:58:20;;;;;;;8.20;5.40;;;;;;;17.65;55.10;100753.88;5022886;28;20033;-86
2022/09/22 08:00:45;;;;;;;13.88;5.18;;;;;;;17.69;54.82;100755.25;4993860;28;20045;-84
2022/09/22 08:03:10;;;;;;;13.55;5.28;;;;;;;17.75;54.75;100754.56;5011122;28;20449;-86
2022/09/22 08:05:38;;;;;;;10.98;4.47;;;;;;;17.73;54.47;100736.72;5013065;28;20040;-82
2022/09/22 08:08:04;;;;;;;20.23;4.88;;;;;;;17.76;54.22;100747.28;5013034;28;20653;-82
2022/09/22 08:10:32;;;;;;;123.10;13.48;;;;;;;17.95;54.60;100765.97;5011407;28;20057;-83
2022/09/22 08:12:59;;;;;;;9.23;5.10;;;;;;;17.99;54.11;100737.41;5010858;28;20570;-81
2022/09/22 08:15:25;;;;;;;7.10;3.55;;;;;;;17.74;53.18;100695.72;5012930;28;20030;-85
2022/09/22 08:17:55;;;;;;;7.07;3.90;;;;;;;17.93;53.41;100728.06;5010703;28;20029;-78
2022/09/22 08:20:21;;;;;;;8.45;3.85;;;;;;;18.07;53.49;100731.94;5010718;28;20034;-78
2022/09/22 08:22:52;;;;;;;7.78;3.55;;;;;;;18.06;52.71;100733.00;5010141;28;20036;-77
2022/09/22 08:25:18;;;;;;;4.60;3.28;;;;;;;18.14;52.09;100740.28;5010055;28;20030;-79
2022/09/22 08:27:43;;;;;;;11.23;4.00;;;;;;;18.16;52.58;100739.13;5010879;28;20026;-78
2022/09/22 08:30:10;;;;;;;3.85;2.60;;;;;;;18.27;50.52;100746.94;5011428;28;20041;-85
2022/09/22 08:32:36;;;;;;;10.02;3.08;;;;;;;18.28;50.47;100740.47;5010453;28;20034;-82
2022/09/22 08:35:03;;;;;;;3.33;2.08;;;;;;;18.01;50.01;100707.31;5010187;28;20041;-86
2022/09/22 08:37:31;;;;;;;8.80;2.65;;;;;;;18.29;50.20;100755.78;5016834;28;20041;-81
2022/09/22 08:39:57;;;;;;;3.33;2.90;;;;;;;18.32;50.53;100760.88;5017400;28;20030;-81
2022/09/22 08:42:24;;;;;;;5.28;2.20;;;;;;;18.28;50.35;100755.97;5020316;28;20393;-85
2022/09/22 08:45:01;;;;;;;7.65;2.63;;;;;;;18.34;50.30;100756.13;5012325;28;20030;-78
2022/09/22 08:53:42;;;;;;;9.20;2.35;;;;;;;18.68;49.17;100716.94;5017422;28;20051;-85
2022/09/22 08:56:30;;;;;;;5.32;2.60;;;;;;;19.00;48.26;100746.78;5019775;28;20033;-85
2022/09/22 08:59:17;;;;;;;4.03;2.13;;;;;;;19.18;47.22;100747.41;5022223;28;20034;-82
2022/09/22 09:02:01;;;;;;;9.02;3.28;;;;;;;19.32;46.53;100743.94;4979157;28;20066;-85
2022/09/22 09:04:35;;;;;;;6.00;4.07;;;;;;;19.37;45.87;100741.50;4979435;28;20561;-80
2022/09/22 09:07:33;;;;;;;10.25;1.75;;;;;;;19.34;44.92;100744.59;4994363;28;20051;-81
2022/09/22 09:10:20;;;;;;;6.88;1.80;;;;;;;19.34;44.73;100735.56;4992856;28;20400;-82
2022/09/22 09:13:08;;;;;;;9.25;2.17;;;;;;;19.37;44.98;100746.13;4979998;28;20058;-82
2022/09/22 09:15:46;;;;;;;11.07;1.65;;;;;;;19.32;44.70;100718.53;4978207;28;20039;-83
2022/09/22 09:18:30;;;;;;;2.20;1.60;;;;;;;19.55;44.43;100744.00;4987415;28;20031;-82
2022/09/22 09:20:58;;;;;;;9.40;2.42;;;;;;;19.47;44.12;100714.91;4986450;28;20034;-81
2022/09/22 09:23:30;;;;;;;8.13;1.55;;;;;;;19.65;43.43;100739.16;4983610;28;20027;-82
2022/09/22 09:25:57;;;;;;;7.90;2.28;;;;;;;19.73;43.42;100735.50;4973102;28;20058;-83
2022/09/22 09:28:41;;;;;;;3.95;1.98;;;;;;;19.81;43.63;100732.75;4972277;28;20034;-85
2022/09/22 09:31:19;;;;;;;5.70;2.40;;;;;;;19.91;43.47;100736.06;4971034;28;20070;-84
2022/09/22 09:33:53;;;;;;;2.80;2.05;;;;;;;19.93;43.23;100737.59;4970239;28;20041;-83
2022/09/22 09:36:22;;;;;;;10.02;2.20;;;;;;;19.97;43.03;100743.53;4973452;28;20031;-86
2022/09/22 09:38:56;;;;;;;8.38;2.35;;;;;;;19.90;42.85;100748.03;4992604;28;20472;-85
2022/09/22 09:41:27;;;;;;;4.35;2.08;;;;;;;19.93;43.08;100753.13;5014451;28;20102;-86
2022/09/22 09:43:55;;;;;;;3.70;2.45;;;;;;;19.89;42.73;100727.22;5015940;28;20014;-87
2022/09/22 09:46:47;;;;;;;7.20;2.08;;;;;;;20.09;42.39;100742.06;5016481;28;20147;-85
2022/09/22 09:49:16;;;;;;;6.80;2.20;;;;;;;19.88;42.47;100695.47;5017842;28;20094;-83
2022/09/22 09:51:45;;;;;;;5.63;3.03;;;;;;;20.01;42.46;100734.78;5014051;28;20029;-86
2022/09/22 09:54:14;;;;;;;9.45;2.47;;;;;;;20.00;42.76;100691.28;5015848;28;20077;-86
2022/09/22 09:57:11;;;;;;;11.32;3.42;;;;;;;20.33;42.33;100739.16;5012331;28;20022;-86
2022/09/22 10:02:36;;;;;;;19.95;4.35;;;;;;;20.33;41.87;100716.47;5012421;28;20032;-85
2022/09/22 10:05:18;;;;;;;12.82;3.38;;;;;;;20.36;42.02;100710.63;5011554;28;20455;-84
2022/09/22 10:07:47;;;;;;;7.68;5.78;;;;;;;20.18;41.71;100680.91;5011393;28;20053;-84
2022/09/22 10:10:27;;;;;;;16.55;4.35;;;;;;;20.44;41.47;100714.13;5011452;28;20037;-84
2022/09/22 10:13:14;;;;;;;16.48;3.15;;;;;;;20.38;41.55;100711.28;5010330;28;20045;-87
2022/09/22 10:15:41;;;;;;;7.45;3.30;;;;;;;20.26;40.84;100710.03;5010230;28;20045;-83
2022/09/22 10:18:38;;;;;;;6.05;3.40;;;;;;;20.21;41.29;100706.97;5010985;28;20570;-85
2022/09/22 10:21:17;;;;;;;18.77;5.10;;;;;;;20.14;41.79;100693.22;4969154;28;20634;-84
2022/09/22 10:23:50;;;;;;;10.98;2.85;;;;;;;20.30;41.25;100709.50;4969150;28;20031;-85
2022/09/22 10:26:26;;;;;;;;;;;;;;;20.41;41.36;100714.50;4970006;28;20046;-83
2022/09/22 10:29:19;;;;;;;4.13;2.95;;;;;;;20.48;41.16;100704.53;4976977;28;19941;-85
2022/09/22 10:32:14;;;;;;;5.65;3.53;;;;;;;20.41;40.79;100684.44;4976607;28;20041;-85
2022/09/22 10:34:41;;;;;;;3.17;2.80;;;;;;;20.40;40.62;100698.25;4970038;28;20034;-84
2022/09/22 10:37:10;;;;;;;7.28;2.85;;;;;;;20.45;40.78;100699.44;4969855;28;20027;-84
2022/09/22 10:39:38;;;;;;;6.32;2.45;;;;;;;20.33;40.76;100656.34;4970315;28;20043;-83
2022/09/22 10:42:11;;;;;;;6.88;2.88;;;;;;;20.59;40.30;100684.06;4969861;28;20031;-84
2022/09/22 10:44:37;;;;;;;;;;;;;;;20.67;39.75;100691.34;4983369;28;20042;-82
2022/09/22 10:47:30;;;;;;;8.60;2.90;;;;;;;20.64;40.19;100687.91;4988372;28;19925;-82
2022/09/22 10:50:20;;;;;;;7.65;2.33;;;;;;;20.75;40.05;100688.50;4987446;28;20027;-82
2022/09/22 10:53:14;;;;;;;8.52;3.28;;;;;;;20.74;39.49;100686.78;4974692;28;20103;-85
2022/09/22 10:55:51;;;;;;;3.90;2.35;;;;;;;20.74;39.75;100678.59;4972166;28;20061;-84
2022/09/22 10:58:35;;;;;;;5.10;3.72;;;;;;;20.72;40.24;100672.47;5001392;28;20100;-84
2022/09/22 11:01:25;;;;;;;5.75;2.65;;;;;;;20.83;39.43;100674.72;5014144;28;20491;-86
2022/09/22 11:04:01;;;;;;;6.63;2.42;;;;;;;20.83;39.32;100655.56;5013601;28;20028;-86
2022/09/22 11:12:40;;;;;;;21.80;9.70;;;;;;;20.81;39.05;100627.59;5013417;28;20067;-84
2022/09/22 11:15:06;;;;;;;14.25;3.67;;;;;;;20.90;38.79;100642.84;5013679;28;20032;-83
2022/09/22 11:17:40;;;;;;;13.20;3.35;;;;;;;20.89;39.02;100643.88;5012563;28;20164;-84
2022/09/22 11:20:15;;;;;;;7.53;3.47;;;;;;;20.83;39.29;100644.63;5012608;28;20653;-83
2022/09/22 11:23:15;;;;;;;38.25;3.95;;;;;;;20.86;39.18;100668.88;5013257;28;20032;-84
2022/09/22 11:26:06;;;;;;;14.80;3.05;;;;;;;20.71;38.98;100659.84;5015048;28;20033;-82
2022/09/22 11:28:38;;;;;;;12.73;3.80;;;;;;;20.58;39.54;100665.97;5012958;28;20501;-86
2022/09/22 11:31:04;;;;;;;3.13;2.70;;;;;;;20.39;40.03;100655.59;5013112;28;20030;-86
2022/09/22 11:33:32;;;;;;;13.35;2.35;;;;;;;20.23;40.46;100651.13;5013748;28;20057;-84
2022/09/22 11:36:22;;;;;;;19.52;3.85;;;;;;;20.30;40.51;100679.44;5015081;28;20082;-84
2022/09/22 11:38:53;;;;;;;9.93;6.35;;;;;;;20.30;40.84;100662.19;5015716;28;20026;-85
2022/09/22 11:41:37;;;;;;;9.30;4.43;;;;;;;20.39;40.78;100661.94;5013392;28;20029;-83
2022/09/22 11:44:33;;;;;;;3.95;2.65;;;;;;;20.40;40.63;100662.75;5012856;28;20037;-85
2022/09/22 11:47:24;;;;;;;3.35;2.28;;;;;;;20.40;40.42;100665.47;5012694;28;20034;-84
2022/09/22 11:50:19;;;;;;;3.13;2.22;;;;;;;20.39;40.56;100656.47;5012600;28;20022;-82
2022/09/22 11:53:05;;;;;;;3.95;2.35;;;;;;;20.42;40.44;100667.03;5011716;28;20668;-83
2022/09/22 11:55:39;;;;;;;9.02;2.85;;;;;;;20.40;40.34;100649.09;5011970;28;20639;-85
2022/09/22 11:58:13;;;;;;;4.43;2.53;;;;;;;20.33;40.68;100646.28;5017042;28;20022;-85
2022/09/22 12:00:47;;;;;;;2.97;2.08;;;;;;;20.38;40.58;100643.84;5024382;28;20030;-82